Auto, West Virginia
Current Conditions -  °F | °C
As of 7:35 PM on Wednesday 22 Oct 2014 (Local Time) from KLWB Reporting Station
Overcast Overcast  
Wind Chill: 46°   Ceiling: 2800
Heat Index: 49°   Visibility: 10mi
Dew Point: 38°   Wind: 6mph
Humidity: 68%   Direction: 340°NNW
Pressure: 30.12"   Gusts: NA
Location:  37.96°N, 80.33°W
Report Text: KLWB 222335Z AUTO 34005KT 10SM OVC028 09/04 A3012 RMK AO2 T00930036
Loading
Personal Weather Stations






























Interactive Weather Map
Tropical Storm Tracking
New forecast layout! Learn more

10-Day Weather Forecast

Advertisements
Track Severe Weather on mobile